createdAt,value
2022-12-11T00:01:30.138Z,99192.27
2022-12-11T00:03:59.137Z,99198.02
2022-12-11T00:06:27.818Z,99197.97
2022-12-11T00:08:55.858Z,99202.65
2022-12-11T00:11:24.170Z,99204.63
2022-12-11T00:13:52.529Z,99204.13
2022-12-11T00:16:25.322Z,99208.21
2022-12-11T00:18:55.768Z,99214.83
2022-12-11T00:21:23.992Z,99215.79
2022-12-11T00:23:52.828Z,99220.04
2022-12-11T00:26:21.969Z,99225.73
2022-12-11T00:28:53.412Z,99222.94
2022-12-11T00:31:22.860Z,99221.41
2022-12-11T00:33:52.128Z,99225.33
2022-12-11T00:36:28.392Z,99228.45
2022-12-11T00:38:57.146Z,99230.13
2022-12-11T00:41:25.751Z,99233.65
2022-12-11T00:43:54.911Z,99235.79
2022-12-11T00:46:23.284Z,99237.67
2022-12-11T00:49:01.378Z,99240.19
2022-12-11T00:51:29.674Z,99245.86
2022-12-11T00:53:58.058Z,99250.40
2022-12-11T00:56:27.100Z,99252.19
2022-12-11T00:58:55.613Z,99253.88
2022-12-11T01:01:25.443Z,99260.13
2022-12-11T01:03:54.765Z,99260.42
2022-12-11T01:06:26.636Z,99262.23
2022-12-11T01:09:14.108Z,99259.35
2022-12-11T01:11:43.470Z,99260.29
2022-12-11T01:14:13.259Z,99255.35
2022-12-11T01:16:41.874Z,99254.84
2022-12-11T01:19:10.857Z,99260.85
2022-12-11T01:21:39.256Z,99261.17
2022-12-11T01:24:08.782Z,99255.85
2022-12-11T01:26:37.354Z,99258.71
2022-12-11T01:29:05.290Z,99260.48
2022-12-11T01:31:34.488Z,99258.77
2022-12-11T01:34:02.901Z,99259.34
2022-12-11T01:36:31.072Z,99262.45
2022-12-11T01:38:59.455Z,99261.19
2022-12-11T01:41:28.033Z,99263.88
2022-12-11T01:44:00.532Z,99266.60
2022-12-11T01:46:31.233Z,99275.04
2022-12-11T01:49:01.453Z,99279.44
2022-12-11T01:51:32.729Z,99280.06
2022-12-11T01:54:07.108Z,99281.34
2022-12-11T01:56:38.188Z,99286.91
2022-12-11T01:59:08.985Z,99284.95
2022-12-11T02:01:36.394Z,99284.48
2022-12-11T02:04:05.617Z,99285.84
2022-12-11T02:06:36.421Z,99282.86
2022-12-11T02:09:12.994Z,99287.89
2022-12-11T02:12:07.238Z,99291.96
2022-12-11T02:15:15.812Z,99295.81
2022-12-11T02:17:56.033Z,99299.71
2022-12-11T02:20:42.617Z,99297.33
2022-12-11T02:23:15.320Z,99300.54
2022-12-11T02:26:21.171Z,99305.65
2022-12-11T02:28:59.985Z,99303.73
2022-12-11T02:31:39.391Z,99300.61
2022-12-11T02:34:18.995Z,99300.91
2022-12-11T02:37:03.044Z,99301.86
2022-12-11T02:39:34.956Z,99299.00
2022-12-11T02:42:05.047Z,99304.52
2022-12-11T02:44:36.339Z,99306.02
2022-12-11T02:47:08.047Z,99304.89
2022-12-11T02:49:36.926Z,99300.73
2022-12-11T02:52:08.369Z,99293.73
2022-12-11T02:54:40.504Z,99288.56
2022-12-11T02:57:19.787Z,99292.36
2022-12-11T02:59:49.097Z,99292.09
2022-12-11T03:02:19.362Z,99292.14
2022-12-11T03:04:49.167Z,99293.85
2022-12-11T03:07:23.717Z,99292.92
2022-12-11T03:09:53.103Z,99295.18
2022-12-11T03:12:31.907Z,99291.79
2022-12-11T03:15:24.235Z,99288.86
2022-12-11T03:18:13.543Z,99287.73
2022-12-11T03:20:52.606Z,99284.13
2022-12-11T03:23:53.731Z,99284.38
2022-12-11T03:26:24.700Z,99290.67
2022-12-11T03:29:12.581Z,99295.35
2022-12-11T03:31:46.700Z,99305.40
2022-12-11T03:34:24.282Z,99306.27
2022-12-11T03:36:54.742Z,99307.55
2022-12-11T03:39:27.976Z,99311.23
2022-12-11T03:41:58.137Z,99313.17
2022-12-11T03:44:28.472Z,99313.31
2022-12-11T03:47:00.597Z,99317.35
2022-12-11T03:49:32.233Z,99315.19
2022-12-11T03:52:02.267Z,99313.03
2022-12-11T03:54:31.589Z,99313.03
2022-12-11T03:57:04.126Z,99319.96
2022-12-11T03:59:32.596Z,99322.79
2022-12-11T04:02:01.512Z,99322.95
2022-12-11T04:04:30.481Z,99330.79
2022-12-11T04:06:59.546Z,99331.55
2022-12-11T04:09:28.862Z,99338.64
2022-12-11T04:11:57.810Z,99344.20
2022-12-11T04:14:45.107Z,99340.98
2022-12-11T04:17:33.324Z,99344.70
2022-12-11T04:20:21.154Z,99348.73
2022-12-11T04:23:08.173Z,99351.27
2022-12-11T04:25:36.994Z,99355.29
2022-12-11T04:28:05.733Z,99358.58
2022-12-11T04:30:34.691Z,99356.56
2022-12-11T04:33:03.110Z,99357.25
2022-12-11T04:35:32.263Z,99358.83
2022-12-11T04:38:01.425Z,99353.64
2022-12-11T04:40:30.346Z,99350.94
2022-12-11T04:42:59.229Z,99348.33
2022-12-11T04:45:28.079Z,99351.05
2022-12-11T04:47:56.924Z,99352.36
2022-12-11T04:50:25.997Z,99355.09
2022-12-11T04:52:58.294Z,99353.44
2022-12-11T04:55:27.693Z,99354.11
2022-12-11T04:57:56.109Z,99352.89
2022-12-11T05:00:24.649Z,99348.03
2022-12-11T05:02:53.992Z,99346.75
2022-12-11T05:05:23.173Z,99344.95
2022-12-11T05:07:51.652Z,99344.64
2022-12-11T05:10:20.602Z,99349.77
2022-12-11T05:12:49.334Z,99354.04
2022-12-11T05:15:18.408Z,99351.77
2022-12-11T05:17:47.055Z,99351.66
2022-12-11T05:20:16.256Z,99348.88
2022-12-11T05:22:45.288Z,99341.02
2022-12-11T05:25:13.645Z,99337.23
2022-12-11T05:27:42.750Z,99334.39
2022-12-11T05:30:14.113Z,99335.70
2022-12-11T05:32:44.028Z,99341.05
2022-12-11T05:35:13.255Z,99335.35
2022-12-11T05:37:41.941Z,99336.22
2022-12-11T05:40:13.569Z,99343.34
2022-12-11T05:42:42.486Z,99344.86
2022-12-11T05:45:13.575Z,99343.20
2022-12-11T05:47:41.993Z,99337.89
2022-12-11T05:50:11.132Z,99338.50
2022-12-11T05:52:39.649Z,99335.64
2022-12-11T05:55:11.003Z,99335.07
2022-12-11T05:57:40.021Z,99332.98
2022-12-11T06:00:13.345Z,99324.75
2022-12-11T06:02:41.863Z,99321.55
2022-12-11T06:05:11.177Z,99322.17
2022-12-11T06:07:40.184Z,99321.16
2022-12-11T06:10:11.835Z,99317.20
2022-12-11T06:12:41.097Z,99320.11
2022-12-11T06:15:12.368Z,99317.65
2022-12-11T06:17:40.760Z,99315.59
2022-12-11T06:20:10.949Z,99313.13
2022-12-11T06:22:40.409Z,99315.46
2022-12-11T06:25:11.250Z,99320.80
2022-12-11T06:27:39.816Z,99316.33
2022-12-11T06:30:12.290Z,99316.18
2022-12-11T06:32:41.761Z,99314.75
2022-12-11T06:35:12.688Z,99315.23
2022-12-11T06:37:41.792Z,99318.19
2022-12-11T06:40:13.370Z,99317.62
2022-12-11T06:42:42.142Z,99326.36
2022-12-11T06:45:13.312Z,99327.40
2022-12-11T06:47:41.488Z,99336.95
2022-12-11T06:50:11.717Z,99339.73
2022-12-11T06:52:40.574Z,99342.59
2022-12-11T06:55:11.979Z,99344.11
2022-12-11T06:57:41.129Z,99339.60
2022-12-11T07:00:14.365Z,99336.96
2022-12-11T07:02:43.132Z,99343.80
2022-12-11T07:05:12.977Z,99346.12
2022-12-11T07:07:41.263Z,99347.91
2022-12-11T07:10:13.355Z,99347.75
2022-12-11T07:12:41.873Z,99350.70
2022-12-11T07:15:13.074Z,99353.30
2022-12-11T07:17:41.517Z,99346.31
2022-12-11T07:20:12.600Z,99341.48
2022-12-11T07:27:02.937Z,99333.23
2022-12-11T07:29:31.810Z,99343.89
2022-12-11T07:32:00.564Z,99342.39
2022-12-11T07:34:29.870Z,99349.10
2022-12-11T07:36:59.165Z,99359.16
2022-12-11T07:39:28.792Z,99369.00
2022-12-11T07:41:57.653Z,99377.77
2022-12-11T07:44:26.483Z,99392.27
2022-12-11T07:46:54.946Z,99393.02
2022-12-11T07:49:23.381Z,99392.66
2022-12-11T07:51:53.068Z,99388.34
2022-12-11T07:54:21.706Z,99395.98
2022-12-11T07:56:53.673Z,99402.83
2022-12-11T07:59:22.071Z,99406.36
2022-12-11T08:01:51.123Z,99411.39
2022-12-11T08:04:19.910Z,99415.35
2022-12-11T08:06:49.121Z,99417.92
2022-12-11T08:09:21.321Z,99422.69
2022-12-11T08:11:51.329Z,99426.31
2022-12-11T08:14:20.643Z,99429.58
2022-12-11T08:16:49.276Z,99435.43
2022-12-11T08:19:18.245Z,99437.05
2022-12-11T08:21:47.145Z,99437.52
2022-12-11T08:24:16.514Z,99441.48
2022-12-11T08:26:46.112Z,99450.19
2022-12-11T08:29:15.165Z,99461.73
2022-12-11T08:31:43.684Z,99473.80
2022-12-11T08:34:14.020Z,99482.23
2022-12-11T08:36:42.959Z,99490.59
2022-12-11T08:39:11.936Z,99491.84
2022-12-11T08:41:40.559Z,99496.70
2022-12-11T08:44:16.549Z,99500.30
2022-12-11T08:46:45.079Z,99502.11
2022-12-11T08:49:13.654Z,99506.84
2022-12-11T08:51:42.797Z,99503.05
2022-12-11T08:54:12.863Z,99511.21
2022-12-11T08:57:04.649Z,99514.52
2022-12-11T08:59:34.201Z,99516.61
2022-12-11T09:02:03.261Z,99524.34
2022-12-11T09:04:32.309Z,99526.71
2022-12-11T09:07:01.165Z,99530.38
2022-12-11T09:09:30.230Z,99537.22
2022-12-11T09:11:59.498Z,99538.98
2022-12-11T09:14:28.677Z,99539.59
2022-12-11T09:16:56.975Z,99536.55
2022-12-11T09:19:31.927Z,99541.14
2022-12-11T09:22:00.706Z,99549.52
2022-12-11T09:24:30.354Z,99554.54
2022-12-11T09:26:59.795Z,99553.58
2022-12-11T09:29:28.009Z,99558.92
2022-12-11T09:31:56.814Z,99558.81
2022-12-11T09:34:29.490Z,99565.88
2022-12-11T09:36:58.634Z,99567.17
2022-12-11T09:39:27.555Z,99569.71
2022-12-11T09:42:14.039Z,99572.04
2022-12-11T09:45:22.688Z,99570.03
2022-12-11T09:47:54.923Z,99571.57
2022-12-11T09:50:33.033Z,99573.01
2022-12-11T09:53:35.849Z,99571.80
2022-12-11T09:56:23.691Z,99572.83
2022-12-11T09:59:13.862Z,99574.85
2022-12-11T10:01:59.018Z,99577.91
2022-12-11T10:04:26.909Z,99580.73
2022-12-11T10:07:19.436Z,99578.70
2022-12-11T10:09:58.522Z,99574.05
2022-12-11T10:13:16.006Z,99567.95
2022-12-11T10:16:00.929Z,99566.53
2022-12-11T10:18:31.323Z,99562.45
2022-12-11T10:21:04.155Z,99557.40
2022-12-11T10:23:47.189Z,99556.17
2022-12-11T10:26:20.818Z,99550.70
2022-12-11T10:28:50.169Z,99556.92
2022-12-11T10:31:25.730Z,99565.77
2022-12-11T10:34:06.295Z,99571.83
2022-12-11T10:36:38.452Z,99577.21
2022-12-11T10:39:19.237Z,99575.45
2022-12-11T10:41:52.879Z,99572.88
2022-12-11T10:44:26.318Z,99574.81
2022-12-11T10:47:05.005Z,99574.45
2022-12-11T10:49:35.937Z,99573.66
2022-12-11T10:52:14.157Z,99574.52
2022-12-11T10:54:45.024Z,99582.43
2022-12-11T10:57:16.232Z,99587.58
2022-12-11T10:59:43.731Z,99588.02
2022-12-11T11:02:28.827Z,99582.60
2022-12-11T11:04:59.511Z,99586.73
2022-12-11T11:07:29.724Z,99590.23
2022-12-11T11:10:13.155Z,99582.35
2022-12-11T11:12:43.970Z,99582.04
2022-12-11T11:15:23.355Z,99575.70
2022-12-11T11:17:55.748Z,99581.11
2022-12-11T11:20:27.300Z,99580.89
2022-12-11T11:22:58.619Z,99580.84
2022-12-11T11:25:29.806Z,99578.55
2022-12-11T11:27:58.668Z,99580.40
2022-12-11T11:31:00.064Z,99578.73
2022-12-11T11:33:29.777Z,99579.04
2022-12-11T11:36:03.268Z,99582.02
2022-12-11T11:38:50.842Z,99582.44
2022-12-11T11:41:28.942Z,99582.39
2022-12-11T11:44:41.017Z,99578.86
2022-12-11T11:47:11.251Z,99585.18
2022-12-11T11:49:47.219Z,99586.59
2022-12-11T11:52:34.221Z,99591.95
2022-12-11T11:55:39.198Z,99593.52
2022-12-11T11:58:27.894Z,99596.83
2022-12-11T12:00:56.550Z,99592.60
2022-12-11T12:03:26.388Z,99589.92
2022-12-11T12:06:01.000Z,99591.23
2022-12-11T12:08:48.282Z,99590.08
2022-12-11T12:11:38.544Z,99589.82
2022-12-11T12:17:42.480Z,99602.77
2022-12-11T12:20:33.508Z,99603.85
2022-12-11T12:23:03.912Z,99603.84
2022-12-11T12:25:50.883Z,99607.80
2022-12-11T12:28:42.953Z,99611.26
2022-12-11T12:31:21.525Z,99614.17
2022-12-11T12:34:08.008Z,99619.20
2022-12-11T12:37:23.187Z,99623.52
2022-12-11T12:40:00.227Z,99630.45
2022-12-11T12:42:36.870Z,99633.52
2022-12-11T12:45:48.384Z,99635.34
2022-12-11T12:48:17.297Z,99639.94
2022-12-11T12:50:49.801Z,99639.85
2022-12-11T12:53:29.092Z,99643.89
2022-12-11T12:55:58.473Z,99648.67
2022-12-11T12:58:28.271Z,99652.64
2022-12-11T13:01:39.126Z,99655.20
2022-12-11T13:04:26.193Z,99658.18
2022-12-11T13:06:58.675Z,99656.76
2022-12-11T13:09:29.456Z,99659.60
2022-12-11T13:11:58.948Z,99660.95
2022-12-11T13:14:32.605Z,99659.48
2022-12-11T13:17:22.433Z,99657.06
2022-12-11T13:19:53.214Z,99663.05
2022-12-11T13:22:23.312Z,99665.14
2022-12-11T13:24:54.538Z,99667.85
2022-12-11T13:27:43.951Z,99671.08
2022-12-11T13:30:14.834Z,99675.40
2022-12-11T13:32:50.946Z,99676.10
2022-12-11T13:35:20.108Z,99677.55
2022-12-11T13:37:53.926Z,99679.16
2022-12-11T13:40:27.212Z,99682.78
2022-12-11T13:42:59.578Z,99686.23
2022-12-11T13:45:41.101Z,99693.91
2022-12-11T13:48:34.239Z,99699.31
2022-12-11T13:51:03.729Z,99704.83
2022-12-11T13:53:32.347Z,99708.26
2022-12-11T13:56:08.546Z,99706.09
2022-12-11T13:58:39.517Z,99703.71
2022-12-11T14:01:12.124Z,99710.65
2022-12-11T14:03:44.077Z,99715.65
2022-12-11T14:06:18.233Z,99721.27
2022-12-11T14:08:51.121Z,99729.02
2022-12-11T14:11:34.914Z,99730.10
2022-12-11T14:14:05.971Z,99735.75
2022-12-11T14:16:34.462Z,99741.92
2022-12-11T14:19:37.330Z,99742.66
2022-12-11T14:22:07.239Z,99745.56
2022-12-11T14:24:36.936Z,99745.14
2022-12-11T14:27:05.099Z,99742.00
2022-12-11T14:29:34.972Z,99738.95
2022-12-11T14:34:07.457Z,99753.53
2022-12-11T14:36:36.910Z,99754.52
2022-12-11T14:39:12.453Z,99750.04
2022-12-11T14:41:47.109Z,99749.49
2022-12-11T14:44:17.542Z,99749.17
2022-12-11T14:47:11.417Z,99750.30
2022-12-11T14:49:59.700Z,99744.73
2022-12-11T14:52:41.893Z,99743.75
2022-12-11T14:55:18.463Z,99742.35
2022-12-11T14:57:50.883Z,99745.98
2022-12-11T15:00:59.207Z,99749.19
2022-12-11T15:03:34.906Z,99753.66
2022-12-11T15:06:22.260Z,99755.39
2022-12-11T15:08:51.293Z,99758.98
2022-12-11T15:11:20.243Z,99761.73
2022-12-11T15:14:02.529Z,99766.97
2022-12-11T15:16:35.526Z,99763.27
2022-12-11T15:19:03.773Z,99759.78
2022-12-11T15:21:39.431Z,99752.44
2022-12-11T15:24:22.427Z,99758.22
2022-12-11T15:26:50.274Z,99755.41
2022-12-11T15:29:25.826Z,99756.39
2022-12-11T15:32:04.411Z,99753.85
2022-12-11T15:34:48.272Z,99752.27
2022-12-11T15:37:27.754Z,99749.48
2022-12-11T15:39:58.021Z,99751.41
2022-12-11T15:42:36.608Z,99743.61
2022-12-11T15:45:16.716Z,99742.02
2022-12-11T15:47:45.484Z,99743.91
2022-12-11T15:50:19.473Z,99746.79
2022-12-11T15:52:48.208Z,99750.10
2022-12-11T15:55:18.468Z,99751.50
2022-12-11T15:57:49.878Z,99750.85
2022-12-11T16:00:19.179Z,99762.55
2022-12-11T16:02:48.764Z,99764.09
2022-12-11T16:05:17.393Z,99768.02
2022-12-11T16:07:46.202Z,99771.42
2022-12-11T16:10:19.525Z,99776.47
2022-12-11T16:12:47.635Z,99774.95
2022-12-11T16:15:23.093Z,99779.02
2022-12-11T16:18:02.094Z,99783.23
2022-12-11T16:20:31.246Z,99784.38
2022-12-11T16:23:01.019Z,99787.39
2022-12-11T16:25:29.351Z,99784.79
2022-12-11T16:27:59.838Z,99790.95
2022-12-11T16:30:29.780Z,99790.33
2022-12-11T16:32:59.143Z,99790.02
2022-12-11T16:35:28.239Z,99792.19
2022-12-11T16:37:57.652Z,99790.48
2022-12-11T16:40:27.239Z,99792.44
2022-12-11T16:42:55.447Z,99795.73
2022-12-11T16:45:25.788Z,99796.96
2022-12-11T16:47:54.549Z,99800.54
2022-12-11T16:50:23.778Z,99801.41
2022-12-11T16:52:52.716Z,99810.41
2022-12-11T16:55:22.985Z,99812.60
2022-12-11T16:57:52.046Z,99815.64
2022-12-11T17:00:20.988Z,99811.96
2022-12-11T17:02:50.996Z,99816.35
2022-12-11T17:05:20.708Z,99814.21
2022-12-11T17:07:49.587Z,99813.21
2022-12-11T17:10:18.863Z,99813.38
2022-12-11T17:12:47.377Z,99813.22
2022-12-11T17:15:17.745Z,99806.73
2022-12-11T17:17:46.658Z,99806.41
2022-12-11T17:20:16.248Z,99804.34
2022-12-11T17:22:46.280Z,99804.71
2022-12-11T17:25:19.701Z,99804.21
2022-12-11T17:27:47.956Z,99804.22
2022-12-11T17:30:17.238Z,99804.45
2022-12-11T17:32:49.132Z,99810.26
2022-12-11T17:35:16.702Z,99809.00
2022-12-11T17:37:44.812Z,99809.26
2022-12-11T17:40:15.348Z,99817.57
2022-12-11T17:42:45.511Z,99818.83
2022-12-11T17:45:14.398Z,99815.49
2022-12-11T17:47:42.972Z,99818.62
2022-12-11T17:50:11.866Z,99819.33
2022-12-11T17:52:44.209Z,99824.41
2022-12-11T17:55:14.028Z,99824.33
2022-12-11T17:57:42.727Z,99831.69
2022-12-11T18:00:16.317Z,99830.52
2022-12-11T18:02:44.877Z,99833.30
2022-12-11T18:05:14.076Z,99836.01
2022-12-11T18:07:43.350Z,99839.02
2022-12-11T18:10:11.620Z,99838.10
2022-12-11T18:12:41.496Z,99838.95
2022-12-11T18:15:12.112Z,99837.55
2022-12-11T18:17:40.514Z,99834.48
2022-12-11T18:20:14.460Z,99834.74
2022-12-11T18:22:43.285Z,99836.63
2022-12-11T18:25:12.889Z,99836.95
2022-12-11T18:27:41.354Z,99830.34
2022-12-11T18:30:14.842Z,99834.64
2022-12-11T18:32:44.476Z,99838.73
2022-12-11T18:35:13.789Z,99840.52
2022-12-11T18:37:42.456Z,99842.09
2022-12-11T18:40:12.429Z,99841.45
2022-12-11T18:42:41.369Z,99852.30
2022-12-11T18:45:12.373Z,99852.27
2022-12-11T18:47:42.233Z,99856.70
2022-12-11T18:50:10.899Z,99855.09
2022-12-11T18:52:40.258Z,99856.73
2022-12-11T18:55:11.473Z,99854.98
2022-12-11T18:57:40.135Z,99861.86
2022-12-11T19:00:12.557Z,99869.13
2022-12-11T19:02:42.021Z,99871.23
2022-12-11T19:05:11.301Z,99870.67
2022-12-11T19:07:39.882Z,99868.48
2022-12-11T19:10:08.952Z,99871.51
2022-12-11T19:12:37.662Z,99873.14
2022-12-11T19:15:10.519Z,99875.85
2022-12-11T19:17:39.326Z,99871.59
2022-12-11T19:20:40.353Z,99876.71
2022-12-11T19:25:31.888Z,99881.47
2022-12-11T19:27:59.624Z,99887.97
2022-12-11T19:30:29.172Z,99891.14
2022-12-11T19:32:58.940Z,99891.23
2022-12-11T19:35:27.745Z,99885.91
2022-12-11T19:37:57.259Z,99888.52
2022-12-11T19:40:26.862Z,99893.27
2022-12-11T19:42:55.452Z,99892.85
2022-12-11T19:45:24.411Z,99889.05
2022-12-11T19:47:52.491Z,99892.73
2022-12-11T19:50:21.123Z,99894.52
2022-12-11T19:52:49.710Z,99898.79
2022-12-11T19:55:21.891Z,99907.07
2022-12-11T19:57:51.228Z,99914.33
2022-12-11T20:00:21.900Z,99916.64
2022-12-11T20:02:50.511Z,99921.30
2022-12-11T20:05:19.682Z,99925.02
2022-12-11T20:07:49.192Z,99927.40
2022-12-11T20:10:17.679Z,99929.79
2022-12-11T20:12:46.225Z,99930.66
2022-12-11T20:15:14.682Z,99928.23
2022-12-11T20:17:44.797Z,99931.15
2022-12-11T20:20:13.569Z,99935.05
2022-12-11T20:22:41.948Z,99936.89
2022-12-11T20:25:13.068Z,99939.70
2022-12-11T20:27:41.382Z,99937.88
2022-12-11T20:30:13.300Z,99943.25
2022-12-11T20:32:42.026Z,99944.92
2022-12-11T20:35:12.253Z,99955.80
2022-12-11T20:37:41.037Z,99959.66
2022-12-11T20:40:11.717Z,99962.77
2022-12-11T20:42:40.981Z,99962.39
2022-12-11T20:45:12.972Z,99960.72
2022-12-11T20:47:41.614Z,99960.31
2022-12-11T20:50:11.811Z,99960.01
2022-12-11T20:52:40.933Z,99960.13
2022-12-11T20:55:12.119Z,99959.30
2022-12-11T20:57:44.848Z,99957.88
2022-12-11T21:00:16.034Z,99962.98
2022-12-11T21:02:45.475Z,99968.08
2022-12-11T21:05:14.764Z,99970.98
2022-12-11T21:07:43.288Z,99976.39
2022-12-11T21:10:14.584Z,99982.26
2022-12-11T21:12:43.078Z,99985.85
2022-12-11T21:15:14.775Z,99990.69
2022-12-11T21:17:43.795Z,99985.21
2022-12-11T21:20:13.609Z,99983.40
2022-12-11T21:22:41.680Z,99980.69
2022-12-11T21:25:14.003Z,99983.63
2022-12-11T21:27:43.737Z,99983.55
2022-12-11T21:30:15.424Z,99984.83
2022-12-11T21:32:43.140Z,99990.20
2022-12-11T21:35:12.727Z,99994.01
2022-12-11T21:37:42.975Z,100003.66
2022-12-11T21:40:14.566Z,100005.20
2022-12-11T21:42:42.903Z,100004.96
2022-12-11T21:48:01.761Z,100010.63
2022-12-11T21:50:30.089Z,100012.13
2022-12-11T21:52:58.765Z,100017.61
2022-12-11T21:55:27.391Z,100021.59
2022-12-11T21:57:56.827Z,100026.92
2022-12-11T22:00:27.440Z,100022.05
2022-12-11T22:02:56.651Z,100022.34
2022-12-11T22:05:25.759Z,100029.38
2022-12-11T22:07:54.461Z,100027.48
2022-12-11T22:10:23.230Z,100026.81
2022-12-11T22:12:51.560Z,100029.66
2022-12-11T22:15:19.840Z,100028.46
2022-12-11T22:17:48.844Z,100030.86
2022-12-11T22:20:18.720Z,100029.61
2022-12-11T22:22:46.899Z,100033.16
2022-12-11T22:25:15.887Z,100035.19
2022-12-11T22:27:44.582Z,100039.00
2022-12-11T22:30:15.036Z,100037.59
2022-12-11T22:32:43.716Z,100035.55
2022-12-11T22:35:12.647Z,100038.51
2022-12-11T22:37:41.476Z,100041.27
2022-12-11T22:40:14.600Z,100046.27
2022-12-11T22:42:44.198Z,100046.80
2022-12-11T22:45:16.342Z,100047.90
2022-12-11T22:47:46.188Z,100041.77
2022-12-11T22:50:16.084Z,100043.10
2022-12-11T22:52:45.632Z,100043.30
2022-12-11T22:55:15.005Z,100042.05
2022-12-11T22:57:43.840Z,100042.20
2022-12-11T23:00:16.832Z,100039.11
2022-12-11T23:02:46.413Z,100039.14
2022-12-11T23:05:15.255Z,100038.20
2022-12-11T23:07:44.121Z,100037.70
2022-12-11T23:10:13.338Z,100038.27
2022-12-11T23:12:42.032Z,100043.10
2022-12-11T23:15:13.566Z,100045.67
2022-12-11T23:17:42.068Z,100045.88
2022-12-11T23:20:13.230Z,100047.04
2022-12-11T23:22:42.289Z,100045.13
2022-12-11T23:25:14.637Z,100042.97
2022-12-11T23:27:44.685Z,100039.21
2022-12-11T23:30:14.534Z,100038.46
2022-12-11T23:32:42.955Z,100039.35
2022-12-11T23:35:13.055Z,100035.84
2022-12-11T23:37:42.287Z,100033.93
2022-12-11T23:40:14.657Z,100036.08
2022-12-11T23:42:44.343Z,100032.66
2022-12-11T23:45:15.515Z,100032.38
2022-12-11T23:47:44.631Z,100029.07
2022-12-11T23:50:13.240Z,100023.86
2022-12-11T23:52:41.730Z,100020.08
2022-12-11T23:55:12.581Z,100025.04
2022-12-11T23:57:41.639Z,100021.12
